sensor_id;sensor_type;location;lat;lon;timestamp;P1;durP1;ratioP1;P2;durP2;ratioP2
75400;SDS011;63974;47.538;18.972;2024-01-27T00:00:14;9.80;;;4.13;;
75400;SDS011;63974;47.538;18.972;2024-01-27T00:03:17;14.25;;;4.13;;
75400;SDS011;63974;47.538;18.972;2024-01-27T00:06:19;7.57;;;3.00;;
75400;SDS011;63974;47.538;18.972;2024-01-27T00:09:22;13.88;;;5.10;;
75400;SDS011;63974;47.538;18.972;2024-01-27T00:12:25;6.23;;;3.00;;
75400;SDS011;63974;47.538;18.972;2024-01-27T00:15:28;6.93;;;2.70;;
75400;SDS011;63974;47.538;18.972;2024-01-27T00:18:31;5.35;;;2.63;;
75400;SDS011;63974;47.538;18.972;2024-01-27T00:21:33;8.77;;;2.97;;
75400;SDS011;63974;47.538;18.972;2024-01-27T00:24:36;9.23;;;3.33;;
75400;SDS011;63974;47.538;18.972;2024-01-27T00:27:39;6.20;;;2.70;;
75400;SDS011;63974;47.538;18.972;2024-01-27T00:30:41;8.40;;;2.63;;
75400;SDS011;63974;47.538;18.972;2024-01-27T00:33:44;7.00;;;2.90;;
75400;SDS011;63974;47.538;18.972;2024-01-27T00:36:47;9.25;;;2.65;;
75400;SDS011;63974;47.538;18.972;2024-01-27T00:39:51;6.45;;;2.67;;
75400;SDS011;63974;47.538;18.972;2024-01-27T00:42:54;2.50;;;1.40;;
75400;SDS011;63974;47.538;18.972;2024-01-27T00:45:57;4.87;;;1.40;;
75400;SDS011;63974;47.538;18.972;2024-01-27T00:48:59;5.00;;;1.40;;
75400;SDS011;63974;47.538;18.972;2024-01-27T00:52:02;7.97;;;1.95;;
75400;SDS011;63974;47.538;18.972;2024-01-27T00:55:05;4.28;;;1.55;;
75400;SDS011;63974;47.538;18.972;2024-01-27T00:58:08;5.23;;;1.53;;
75400;SDS011;63974;47.538;18.972;2024-01-27T01:01:11;5.60;;;1.50;;
75400;SDS011;63974;47.538;18.972;2024-01-27T01:04:13;6.50;;;1.40;;
75400;SDS011;63974;47.538;18.972;2024-01-27T01:07:16;6.20;;;1.58;;
75400;SDS011;63974;47.538;18.972;2024-01-27T01:10:19;7.05;;;1.55;;
75400;SDS011;63974;47.538;18.972;2024-01-27T01:13:22;3.37;;;1.77;;
75400;SDS011;63974;47.538;18.972;2024-01-27T01:16:24;4.27;;;1.40;;
75400;SDS011;63974;47.538;18.972;2024-01-27T01:19:27;3.28;;;1.23;;
75400;SDS011;63974;47.538;18.972;2024-01-27T01:22:30;3.03;;;1.13;;
75400;SDS011;63974;47.538;18.972;2024-01-27T01:25:32;2.67;;;0.82;;
75400;SDS011;63974;47.538;18.972;2024-01-27T01:28:35;2.93;;;1.40;;
75400;SDS011;63974;47.538;18.972;2024-01-27T01:31:38;4.87;;;1.30;;
75400;SDS011;63974;47.538;18.972;2024-01-27T01:34:45;4.30;;;0.90;;
75400;SDS011;63974;47.538;18.972;2024-01-27T01:37:48;4.07;;;1.35;;
75400;SDS011;63974;47.538;18.972;2024-01-27T01:40:52;2.05;;;0.85;;
75400;SDS011;63974;47.538;18.972;2024-01-27T01:43:55;1.80;;;0.60;;
75400;SDS011;63974;47.538;18.972;2024-01-27T01:46:58;2.73;;;0.60;;
75400;SDS011;63974;47.538;18.972;2024-01-27T01:50:01;1.85;;;0.50;;
75400;SDS011;63974;47.538;18.972;2024-01-27T01:53:04;2.85;;;0.85;;
75400;SDS011;63974;47.538;18.972;2024-01-27T01:56:08;1.65;;;0.57;;
75400;SDS011;63974;47.538;18.972;2024-01-27T01:59:11;2.47;;;0.90;;
75400;SDS011;63974;47.538;18.972;2024-01-27T02:02:13;1.43;;;0.20;;
75400;SDS011;63974;47.538;18.972;2024-01-27T02:05:17;0.82;;;0.35;;
75400;SDS011;63974;47.538;18.972;2024-01-27T02:08:19;0.35;;;0.17;;
75400;SDS011;63974;47.538;18.972;2024-01-27T02:11:22;0.85;;;0.45;;
75400;SDS011;63974;47.538;18.972;2024-01-27T02:14:25;0.20;;;0.00;;
75400;SDS011;63974;47.538;18.972;2024-01-27T02:17:29;0.83;;;0.30;;
75400;SDS011;63974;47.538;18.972;2024-01-27T02:20:32;1.80;;;0.17;;
75400;SDS011;63974;47.538;18.972;2024-01-27T02:23:35;0.40;;;0.10;;
75400;SDS011;63974;47.538;18.972;2024-01-27T02:26:37;1.15;;;0.22;;
75400;SDS011;63974;47.538;18.972;2024-01-27T02:29:40;0.80;;;0.37;;
75400;SDS011;63974;47.538;18.972;2024-01-27T02:32:43;0.70;;;0.30;;
75400;SDS011;63974;47.538;18.972;2024-01-27T02:35:45;1.00;;;0.17;;
75400;SDS011;63974;47.538;18.972;2024-01-27T02:38:50;3.53;;;0.30;;
75400;SDS011;63974;47.538;18.972;2024-01-27T02:41:53;0.68;;;0.10;;
75400;SDS011;63974;47.538;18.972;2024-01-27T02:44:58;1.10;;;0.10;;
75400;SDS011;63974;47.538;18.972;2024-01-27T02:48:01;1.27;;;0.10;;
75400;SDS011;63974;47.538;18.972;2024-01-27T02:51:05;0.60;;;0.00;;
75400;SDS011;63974;47.538;18.972;2024-01-27T02:54:07;0.10;;;0.00;;
75400;SDS011;63974;47.538;18.972;2024-01-27T02:57:10;0.65;;;0.08;;
75400;SDS011;63974;47.538;18.972;2024-01-27T03:00:13;1.73;;;0.00;;
75400;SDS011;63974;47.538;18.972;2024-01-27T03:03:16;1.80;;;0.07;;
75400;SDS011;63974;47.538;18.972;2024-01-27T03:06:19;0.52;;;0.25;;
75400;SDS011;63974;47.538;18.972;2024-01-27T03:09:21;1.25;;;0.00;;
75400;SDS011;63974;47.538;18.972;2024-01-27T03:12:24;3.30;;;0.38;;
75400;SDS011;63974;47.538;18.972;2024-01-27T03:15:27;1.50;;;0.10;;
75400;SDS011;63974;47.538;18.972;2024-01-27T03:18:30;1.53;;;0.20;;
75400;SDS011;63974;47.538;18.972;2024-01-27T03:21:33;0.77;;;0.28;;
75400;SDS011;63974;47.538;18.972;2024-01-27T03:24:36;1.23;;;0.30;;
75400;SDS011;63974;47.538;18.972;2024-01-27T03:27:39;1.48;;;0.20;;
75400;SDS011;63974;47.538;18.972;2024-01-27T03:30:41;2.20;;;0.20;;
75400;SDS011;63974;47.538;18.972;2024-01-27T03:33:44;0.10;;;0.03;;
75400;SDS011;63974;47.538;18.972;2024-01-27T03:36:48;1.00;;;0.00;;
75400;SDS011;63974;47.538;18.972;2024-01-27T03:39:50;0.50;;;0.10;;
75400;SDS011;63974;47.538;18.972;2024-01-27T03:42:53;0.85;;;0.10;;
75400;SDS011;63974;47.538;18.972;2024-01-27T03:45:56;1.23;;;0.10;;
75400;SDS011;63974;47.538;18.972;2024-01-27T03:49:02;1.80;;;0.00;;
75400;SDS011;63974;47.538;18.972;2024-01-27T03:52:05;0.65;;;0.20;;
75400;SDS011;63974;47.538;18.972;2024-01-27T03:55:07;0.90;;;0.15;;
75400;SDS011;63974;47.538;18.972;2024-01-27T03:58:10;2.95;;;0.00;;
75400;SDS011;63974;47.538;18.972;2024-01-27T04:01:14;1.80;;;0.10;;
75400;SDS011;63974;47.538;18.972;2024-01-27T04:04:17;0.90;;;0.20;;
75400;SDS011;63974;47.538;18.972;2024-01-27T04:07:20;0.30;;;0.03;;
75400;SDS011;63974;47.538;18.972;2024-01-27T04:10:23;0.60;;;0.40;;
75400;SDS011;63974;47.538;18.972;2024-01-27T04:13:26;0.52;;;0.00;;
75400;SDS011;63974;47.538;18.972;2024-01-27T04:16:29;0.20;;;0.00;;
75400;SDS011;63974;47.538;18.972;2024-01-27T04:19:31;0.30;;;0.20;;
75400;SDS011;63974;47.538;18.972;2024-01-27T04:22:34;1.08;;;0.00;;
75400;SDS011;63974;47.538;18.972;2024-01-27T04:25:37;2.42;;;0.20;;
75400;SDS011;63974;47.538;18.972;2024-01-27T04:28:39;0.90;;;0.10;;
75400;SDS011;63974;47.538;18.972;2024-01-27T04:31:42;0.67;;;0.30;;
75400;SDS011;63974;47.538;18.972;2024-01-27T04:34:45;0.40;;;0.10;;
75400;SDS011;63974;47.538;18.972;2024-01-27T04:37:48;1.05;;;0.20;;
75400;SDS011;63974;47.538;18.972;2024-01-27T04:40:50;0.40;;;0.10;;
75400;SDS011;63974;47.538;18.972;2024-01-27T04:43:54;0.40;;;0.10;;
75400;SDS011;63974;47.538;18.972;2024-01-27T04:46:58;0.47;;;0.10;;
75400;SDS011;63974;47.538;18.972;2024-01-27T04:50:01;0.20;;;0.20;;
75400;SDS011;63974;47.538;18.972;2024-01-27T04:53:04;1.38;;;0.08;;
75400;SDS011;63974;47.538;18.972;2024-01-27T04:56:07;3.08;;;0.20;;
75400;SDS011;63974;47.538;18.972;2024-01-27T04:59:11;0.93;;;0.20;;
75400;SDS011;63974;47.538;18.972;2024-01-27T05:02:14;1.70;;;0.10;;
75400;SDS011;63974;47.538;18.972;2024-01-27T05:05:17;0.43;;;0.10;;
75400;SDS011;63974;47.538;18.972;2024-01-27T05:08:19;0.93;;;0.22;;
75400;SDS011;63974;47.538;18.972;2024-01-27T05:11:25;0.20;;;0.13;;
75400;SDS011;63974;47.538;18.972;2024-01-27T05:14:31;0.45;;;0.05;;
75400;SDS011;63974;47.538;18.972;2024-01-27T05:17:34;0.20;;;0.00;;
75400;SDS011;63974;47.538;18.972;2024-01-27T05:20:37;0.10;;;0.00;;
75400;SDS011;63974;47.538;18.972;2024-01-27T05:23:39;1.25;;;0.10;;
75400;SDS011;63974;47.538;18.972;2024-01-27T05:26:42;1.20;;;0.13;;
75400;SDS011;63974;47.538;18.972;2024-01-27T05:29:45;0.43;;;0.10;;
75400;SDS011;63974;47.538;18.972;2024-01-27T05:32:48;0.80;;;0.10;;
75400;SDS011;63974;47.538;18.972;2024-01-27T05:35:50;0.50;;;0.20;;
75400;SDS011;63974;47.538;18.972;2024-01-27T05:38:53;0.40;;;0.00;;
75400;SDS011;63974;47.538;18.972;2024-01-27T05:41:56;1.25;;;0.00;;
75400;SDS011;63974;47.538;18.972;2024-01-27T05:44:59;1.45;;;0.10;;
75400;SDS011;63974;47.538;18.972;2024-01-27T05:48:01;1.03;;;0.10;;
75400;SDS011;63974;47.538;18.972;2024-01-27T05:51:05;3.33;;;0.30;;
75400;SDS011;63974;47.538;18.972;2024-01-27T05:54:07;1.13;;;0.20;;
75400;SDS011;63974;47.538;18.972;2024-01-27T05:57:12;3.53;;;0.10;;
75400;SDS011;63974;47.538;18.972;2024-01-27T06:00:15;0.22;;;0.03;;
75400;SDS011;63974;47.538;18.972;2024-01-27T06:03:17;0.47;;;0.00;;
75400;SDS011;63974;47.538;18.972;2024-01-27T06:06:20;0.60;;;0.10;;
75400;SDS011;63974;47.538;18.972;2024-01-27T06:09:23;2.05;;;0.28;;
75400;SDS011;63974;47.538;18.972;2024-01-27T06:12:26;1.63;;;0.20;;
75400;SDS011;63974;47.538;18.972;2024-01-27T06:15:29;2.35;;;0.40;;
75400;SDS011;63974;47.538;18.972;2024-01-27T06:18:32;1.83;;;0.30;;
75400;SDS011;63974;47.538;18.972;2024-01-27T06:21:35;0.87;;;0.20;;
75400;SDS011;63974;47.538;18.972;2024-01-27T06:24:41;0.95;;;0.20;;
75400;SDS011;63974;47.538;18.972;2024-01-27T06:27:46;1.38;;;0.20;;
75400;SDS011;63974;47.538;18.972;2024-01-27T06:30:48;1.45;;;0.28;;
75400;SDS011;63974;47.538;18.972;2024-01-27T06:33:51;2.57;;;0.20;;
75400;SDS011;63974;47.538;18.972;2024-01-27T06:36:54;0.87;;;0.07;;
75400;SDS011;63974;47.538;18.972;2024-01-27T06:39:57;0.73;;;0.10;;
75400;SDS011;63974;47.538;18.972;2024-01-27T06:43:00;0.50;;;0.00;;
75400;SDS011;63974;47.538;18.972;2024-01-27T06:46:05;1.13;;;0.20;;
75400;SDS011;63974;47.538;18.972;2024-01-27T06:49:08;2.90;;;0.40;;
75400;SDS011;63974;47.538;18.972;2024-01-27T06:52:11;0.73;;;0.00;;
75400;SDS011;63974;47.538;18.972;2024-01-27T06:55:14;1.20;;;0.30;;
75400;SDS011;63974;47.538;18.972;2024-01-27T06:58:17;1.05;;;0.20;;
75400;SDS011;63974;47.538;18.972;2024-01-27T07:01:19;0.20;;;0.00;;
75400;SDS011;63974;47.538;18.972;2024-01-27T07:04:23;1.93;;;0.63;;
75400;SDS011;63974;47.538;18.972;2024-01-27T07:07:27;1.33;;;0.47;;
75400;SDS011;63974;47.538;18.972;2024-01-27T07:10:30;4.15;;;0.63;;
75400;SDS011;63974;47.538;18.972;2024-01-27T07:13:33;3.28;;;0.13;;
75400;SDS011;63974;47.538;18.972;2024-01-27T07:16:38;2.25;;;0.40;;
75400;SDS011;63974;47.538;18.972;2024-01-27T07:19:41;1.47;;;0.80;;
75400;SDS011;63974;47.538;18.972;2024-01-27T07:22:43;1.93;;;0.50;;
75400;SDS011;63974;47.538;18.972;2024-01-27T07:25:46;2.85;;;0.63;;
75400;SDS011;63974;47.538;18.972;2024-01-27T07:28:49;4.32;;;0.70;;
75400;SDS011;63974;47.538;18.972;2024-01-27T07:31:52;4.82;;;1.33;;
75400;SDS011;63974;47.538;18.972;2024-01-27T07:34:54;1.90;;;0.20;;
75400;SDS011;63974;47.538;18.972;2024-01-27T07:37:57;1.23;;;0.10;;
75400;SDS011;63974;47.538;18.972;2024-01-27T07:41:00;1.00;;;0.10;;
75400;SDS011;63974;47.538;18.972;2024-01-27T07:44:07;4.38;;;0.70;;
75400;SDS011;63974;47.538;18.972;2024-01-27T07:47:13;2.03;;;0.40;;
75400;SDS011;63974;47.538;18.972;2024-01-27T07:50:16;2.23;;;0.40;;
75400;SDS011;63974;47.538;18.972;2024-01-27T07:53:19;2.30;;;0.90;;
75400;SDS011;63974;47.538;18.972;2024-01-27T07:56:21;3.35;;;0.68;;
75400;SDS011;63974;47.538;18.972;2024-01-27T07:59:24;1.45;;;0.82;;
75400;SDS011;63974;47.538;18.972;2024-01-27T08:02:27;0.63;;;0.20;;
75400;SDS011;63974;47.538;18.972;2024-01-27T08:05:30;4.20;;;0.90;;
75400;SDS011;63974;47.538;18.972;2024-01-27T08:08:32;1.33;;;0.50;;
75400;SDS011;63974;47.538;18.972;2024-01-27T08:11:35;2.88;;;0.60;;
75400;SDS011;63974;47.538;18.972;2024-01-27T08:14:39;2.00;;;0.40;;
75400;SDS011;63974;47.538;18.972;2024-01-27T08:17:42;1.58;;;0.57;;
75400;SDS011;63974;47.538;18.972;2024-01-27T08:20:44;1.30;;;0.40;;
75400;SDS011;63974;47.538;18.972;2024-01-27T08:23:47;0.73;;;0.10;;
75400;SDS011;63974;47.538;18.972;2024-01-27T08:26:50;0.90;;;0.20;;
75400;SDS011;63974;47.538;18.972;2024-01-27T08:29:53;1.35;;;0.32;;
75400;SDS011;63974;47.538;18.972;2024-01-27T08:32:59;2.35;;;0.30;;
75400;SDS011;63974;47.538;18.972;2024-01-27T08:36:02;2.10;;;0.80;;
75400;SDS011;63974;47.538;18.972;2024-01-27T08:39:05;4.57;;;1.40;;
75400;SDS011;63974;47.538;18.972;2024-01-27T08:42:10;5.65;;;1.60;;
75400;SDS011;63974;47.538;18.972;2024-01-27T08:45:13;2.35;;;0.55;;
75400;SDS011;63974;47.538;18.972;2024-01-27T08:48:17;2.38;;;0.63;;
75400;SDS011;63974;47.538;18.972;2024-01-27T08:51:20;1.27;;;0.70;;
75400;SDS011;63974;47.538;18.972;2024-01-27T08:54:23;1.93;;;0.27;;
75400;SDS011;63974;47.538;18.972;2024-01-27T08:57:26;4.55;;;1.27;;
75400;SDS011;63974;47.538;18.972;2024-01-27T09:00:28;0.30;;;0.00;;
75400;SDS011;63974;47.538;18.972;2024-01-27T09:03:31;1.38;;;0.22;;
75400;SDS011;63974;47.538;18.972;2024-01-27T09:06:34;3.27;;;0.57;;
75400;SDS011;63974;47.538;18.972;2024-01-27T09:09:37;0.70;;;0.10;;
75400;SDS011;63974;47.538;18.972;2024-01-27T09:12:43;2.25;;;0.28;;
75400;SDS011;63974;47.538;18.972;2024-01-27T09:15:46;1.08;;;0.30;;
75400;SDS011;63974;47.538;18.972;2024-01-27T09:18:49;0.80;;;0.20;;
75400;SDS011;63974;47.538;18.972;2024-01-27T09:21:55;1.07;;;0.20;;
75400;SDS011;63974;47.538;18.972;2024-01-27T09:24:57;1.43;;;0.20;;
75400;SDS011;63974;47.538;18.972;2024-01-27T09:28:00;2.17;;;0.47;;
75400;SDS011;63974;47.538;18.972;2024-01-27T09:31:03;2.15;;;0.28;;
75400;SDS011;63974;47.538;18.972;2024-01-27T09:34:06;3.15;;;0.10;;
75400;SDS011;63974;47.538;18.972;2024-01-27T09:37:09;0.40;;;0.07;;
75400;SDS011;63974;47.538;18.972;2024-01-27T09:40:12;0.57;;;0.10;;
75400;SDS011;63974;47.538;18.972;2024-01-27T09:43:15;1.30;;;0.20;;
75400;SDS011;63974;47.538;18.972;2024-01-27T09:46:20;0.63;;;0.50;;
75400;SDS011;63974;47.538;18.972;2024-01-27T09:49:23;2.05;;;0.63;;
75400;SDS011;63974;47.538;18.972;2024-01-27T09:52:29;0.60;;;0.07;;
75400;SDS011;63974;47.538;18.972;2024-01-27T09:55:32;2.67;;;0.47;;
75400;SDS011;63974;47.538;18.972;2024-01-27T09:58:34;0.73;;;0.17;;
75400;SDS011;63974;47.538;18.972;2024-01-27T10:01:37;1.80;;;0.30;;
75400;SDS011;63974;47.538;18.972;2024-01-27T10:04:41;3.33;;;1.00;;
75400;SDS011;63974;47.538;18.972;2024-01-27T10:07:45;6.03;;;1.10;;
75400;SDS011;63974;47.538;18.972;2024-01-27T10:10:48;3.77;;;1.27;;
75400;SDS011;63974;47.538;18.972;2024-01-27T10:13:56;1.13;;;0.32;;
75400;SDS011;63974;47.538;18.972;2024-01-27T10:17:02;2.85;;;0.70;;
75400;SDS011;63974;47.538;18.972;2024-01-27T10:20:05;0.70;;;0.50;;
75400;SDS011;63974;47.538;18.972;2024-01-27T10:23:13;0.83;;;0.27;;
75400;SDS011;63974;47.538;18.972;2024-01-27T10:26:16;2.77;;;0.50;;
75400;SDS011;63974;47.538;18.972;2024-01-27T10:29:18;2.25;;;0.63;;
75400;SDS011;63974;47.538;18.972;2024-01-27T10:32:21;3.55;;;1.15;;
75400;SDS011;63974;47.538;18.972;2024-01-27T10:35:27;3.35;;;1.10;;
75400;SDS011;63974;47.538;18.972;2024-01-27T10:38:37;3.87;;;1.27;;
75400;SDS011;63974;47.538;18.972;2024-01-27T10:41:44;1.80;;;1.00;;
75400;SDS011;63974;47.538;18.972;2024-01-27T10:44:48;1.98;;;0.40;;
75400;SDS011;63974;47.538;18.972;2024-01-27T10:47:52;2.92;;;0.60;;
75400;SDS011;63974;47.538;18.972;2024-01-27T10:50:58;1.45;;;0.50;;
75400;SDS011;63974;47.538;18.972;2024-01-27T10:54:05;3.57;;;0.50;;
75400;SDS011;63974;47.538;18.972;2024-01-27T10:57:13;0.83;;;0.40;;
75400;SDS011;63974;47.538;18.972;2024-01-27T11:00:17;3.17;;;0.60;;
75400;SDS011;63974;47.538;18.972;2024-01-27T11:03:21;1.30;;;0.20;;
75400;SDS011;63974;47.538;18.972;2024-01-27T11:06:25;1.40;;;0.60;;
75400;SDS011;63974;47.538;18.972;2024-01-27T11:09:31;3.07;;;0.60;;
75400;SDS011;63974;47.538;18.972;2024-01-27T11:12:38;2.20;;;0.40;;
75400;SDS011;63974;47.538;18.972;2024-01-27T11:15:51;2.67;;;0.30;;
75400;SDS011;63974;47.538;18.972;2024-01-27T11:18:56;0.98;;;0.60;;
75400;SDS011;63974;47.538;18.972;2024-01-27T11:22:00;3.15;;;0.30;;
75400;SDS011;63974;47.538;18.972;2024-01-27T11:28:13;6.27;;;1.10;;
75400;SDS011;63974;47.538;18.972;2024-01-27T11:31:18;3.70;;;1.35;;
75400;SDS011;63974;47.538;18.972;2024-01-27T11:34:21;3.08;;;0.57;;
75400;SDS011;63974;47.538;18.972;2024-01-27T11:37:24;3.70;;;0.80;;
75400;SDS011;63974;47.538;18.972;2024-01-27T11:40:45;4.53;;;1.13;;
75400;SDS011;63974;47.538;18.972;2024-01-27T11:43:55;3.40;;;0.97;;
75400;SDS011;63974;47.538;18.972;2024-01-27T11:46:58;6.28;;;1.48;;
75400;SDS011;63974;47.538;18.972;2024-01-27T11:50:02;2.63;;;0.73;;
75400;SDS011;63974;47.538;18.972;2024-01-27T11:53:05;4.32;;;1.55;;
75400;SDS011;63974;47.538;18.972;2024-01-27T11:56:12;1.67;;;0.60;;
75400;SDS011;63974;47.538;18.972;2024-01-27T11:59:15;2.97;;;1.33;;
75400;SDS011;63974;47.538;18.972;2024-01-27T12:02:18;2.88;;;0.70;;
75400;SDS011;63974;47.538;18.972;2024-01-27T12:05:21;5.55;;;1.10;;
75400;SDS011;63974;47.538;18.972;2024-01-27T12:08:25;6.63;;;1.63;;
75400;SDS011;63974;47.538;18.972;2024-01-27T12:11:27;0.97;;;0.60;;
75400;SDS011;63974;47.538;18.972;2024-01-27T12:14:39;2.40;;;0.40;;
75400;SDS011;63974;47.538;18.972;2024-01-27T12:17:48;1.98;;;0.40;;
75400;SDS011;63974;47.538;18.972;2024-01-27T12:20:55;2.28;;;1.00;;
75400;SDS011;63974;47.538;18.972;2024-01-27T12:24:00;4.25;;;1.10;;
75400;SDS011;63974;47.538;18.972;2024-01-27T12:27:03;5.77;;;1.33;;
75400;SDS011;63974;47.538;18.972;2024-01-27T12:30:07;1.40;;;0.40;;
75400;SDS011;63974;47.538;18.972;2024-01-27T12:33:11;1.58;;;0.40;;
75400;SDS011;63974;47.538;18.972;2024-01-27T12:36:16;2.78;;;0.50;;
75400;SDS011;63974;47.538;18.972;2024-01-27T12:39:21;0.60;;;0.30;;
75400;SDS011;63974;47.538;18.972;2024-01-27T12:42:23;2.37;;;0.80;;
75400;SDS011;63974;47.538;18.972;2024-01-27T12:45:26;4.27;;;1.73;;
75400;SDS011;63974;47.538;18.972;2024-01-27T12:48:31;4.30;;;1.67;;
75400;SDS011;63974;47.538;18.972;2024-01-27T12:51:34;3.55;;;0.73;;
75400;SDS011;63974;47.538;18.972;2024-01-27T12:54:37;3.08;;;0.40;;
75400;SDS011;63974;47.538;18.972;2024-01-27T12:57:40;4.90;;;0.90;;
75400;SDS011;63974;47.538;18.972;2024-01-27T13:00:43;1.70;;;1.03;;
75400;SDS011;63974;47.538;18.972;2024-01-27T13:03:46;5.45;;;1.05;;
75400;SDS011;63974;47.538;18.972;2024-01-27T13:06:49;2.35;;;0.40;;
75400;SDS011;63974;47.538;18.972;2024-01-27T13:09:53;2.15;;;0.88;;
75400;SDS011;63974;47.538;18.972;2024-01-27T13:12:56;1.50;;;0.80;;
75400;SDS011;63974;47.538;18.972;2024-01-27T13:16:00;3.47;;;0.97;;
75400;SDS011;63974;47.538;18.972;2024-01-27T13:19:03;5.15;;;1.10;;
75400;SDS011;63974;47.538;18.972;2024-01-27T13:22:06;5.57;;;1.40;;
75400;SDS011;63974;47.538;18.972;2024-01-27T13:25:09;3.90;;;0.77;;
75400;SDS011;63974;47.538;18.972;2024-01-27T13:28:11;3.40;;;1.30;;
75400;SDS011;63974;47.538;18.972;2024-01-27T13:31:15;2.60;;;0.50;;
75400;SDS011;63974;47.538;18.972;2024-01-27T13:34:18;1.83;;;0.63;;
75400;SDS011;63974;47.538;18.972;2024-01-27T13:37:21;3.50;;;0.73;;
75400;SDS011;63974;47.538;18.972;2024-01-27T13:40:24;1.92;;;0.60;;
75400;SDS011;63974;47.538;18.972;2024-01-27T13:43:27;4.43;;;1.37;;
75400;SDS011;63974;47.538;18.972;2024-01-27T13:46:30;2.97;;;1.40;;
75400;SDS011;63974;47.538;18.972;2024-01-27T13:49:33;2.88;;;0.68;;
75400;SDS011;63974;47.538;18.972;2024-01-27T13:52:36;4.03;;;0.65;;
75400;SDS011;63974;47.538;18.972;2024-01-27T13:55:39;3.03;;;1.30;;
75400;SDS011;63974;47.538;18.972;2024-01-27T13:58:42;3.53;;;1.20;;
75400;SDS011;63974;47.538;18.972;2024-01-27T14:01:45;5.07;;;1.40;;
75400;SDS011;63974;47.538;18.972;2024-01-27T14:04:48;2.72;;;0.57;;
75400;SDS011;63974;47.538;18.972;2024-01-27T14:07:51;2.17;;;0.40;;
75400;SDS011;63974;47.538;18.972;2024-01-27T14:10:53;1.38;;;0.68;;
75400;SDS011;63974;47.538;18.972;2024-01-27T14:13:56;2.77;;;0.50;;
75400;SDS011;63974;47.538;18.972;2024-01-27T14:16:59;3.33;;;0.93;;
75400;SDS011;63974;47.538;18.972;2024-01-27T14:20:02;4.40;;;1.10;;
75400;SDS011;63974;47.538;18.972;2024-01-27T14:23:06;3.28;;;1.10;;
75400;SDS011;63974;47.538;18.972;2024-01-27T14:26:09;1.52;;;0.43;;
75400;SDS011;63974;47.538;18.972;2024-01-27T14:29:17;2.10;;;0.53;;
75400;SDS011;63974;47.538;18.972;2024-01-27T14:32:20;2.67;;;1.50;;
75400;SDS011;63974;47.538;18.972;2024-01-27T14:35:23;3.58;;;0.90;;
75400;SDS011;63974;47.538;18.972;2024-01-27T14:38:27;4.78;;;0.93;;
75400;SDS011;63974;47.538;18.972;2024-01-27T14:41:30;3.33;;;0.70;;
75400;SDS011;63974;47.538;18.972;2024-01-27T14:44:33;2.57;;;0.90;;
75400;SDS011;63974;47.538;18.972;2024-01-27T14:47:36;3.00;;;0.50;;
75400;SDS011;63974;47.538;18.972;2024-01-27T14:50:38;2.78;;;0.70;;
75400;SDS011;63974;47.538;18.972;2024-01-27T14:53:41;5.70;;;1.02;;
75400;SDS011;63974;47.538;18.972;2024-01-27T14:56:44;3.58;;;0.70;;
75400;SDS011;63974;47.538;18.972;2024-01-27T14:59:47;2.60;;;0.77;;
75400;SDS011;63974;47.538;18.972;2024-01-27T15:02:50;3.70;;;1.00;;
75400;SDS011;63974;47.538;18.972;2024-01-27T15:05:52;3.42;;;1.58;;
75400;SDS011;63974;47.538;18.972;2024-01-27T15:08:56;4.80;;;1.10;;
75400;SDS011;63974;47.538;18.972;2024-01-27T15:11:59;2.65;;;0.90;;
75400;SDS011;63974;47.538;18.972;2024-01-27T15:15:02;4.57;;;0.87;;
75400;SDS011;63974;47.538;18.972;2024-01-27T15:18:05;2.23;;;0.83;;
75400;SDS011;63974;47.538;18.972;2024-01-27T15:21:10;3.33;;;1.48;;
75400;SDS011;63974;47.538;18.972;2024-01-27T15:24:13;3.85;;;1.40;;
75400;SDS011;63974;47.538;18.972;2024-01-27T15:27:16;1.98;;;0.73;;
75400;SDS011;63974;47.538;18.972;2024-01-27T15:30:21;2.67;;;1.13;;
75400;SDS011;63974;47.538;18.972;2024-01-27T15:33:24;4.23;;;1.23;;
75400;SDS011;63974;47.538;18.972;2024-01-27T15:36:27;2.85;;;1.40;;
75400;SDS011;63974;47.538;18.972;2024-01-27T15:39:30;3.90;;;1.02;;
75400;SDS011;63974;47.538;18.972;2024-01-27T15:42:33;5.22;;;1.33;;
75400;SDS011;63974;47.538;18.972;2024-01-27T15:45:35;4.67;;;1.30;;
75400;SDS011;63974;47.538;18.972;2024-01-27T15:48:38;2.93;;;0.70;;
75400;SDS011;63974;47.538;18.972;2024-01-27T15:51:41;5.78;;;1.60;;
75400;SDS011;63974;47.538;18.972;2024-01-27T15:54:44;2.55;;;1.38;;
75400;SDS011;63974;47.538;18.972;2024-01-27T15:57:50;5.32;;;1.60;;
75400;SDS011;63974;47.538;18.972;2024-01-27T16:00:52;4.57;;;2.37;;
75400;SDS011;63974;47.538;18.972;2024-01-27T16:03:55;4.40;;;1.60;;
75400;SDS011;63974;47.538;18.972;2024-01-27T16:06:58;4.85;;;1.40;;
75400;SDS011;63974;47.538;18.972;2024-01-27T16:10:01;3.30;;;1.42;;
75400;SDS011;63974;47.538;18.972;2024-01-27T16:13:05;8.00;;;2.20;;
75400;SDS011;63974;47.538;18.972;2024-01-27T16:16:07;5.10;;;2.73;;
75400;SDS011;63974;47.538;18.972;2024-01-27T16:19:10;5.27;;;2.47;;
75400;SDS011;63974;47.538;18.972;2024-01-27T16:22:14;4.32;;;2.38;;
75400;SDS011;63974;47.538;18.972;2024-01-27T16:25:19;4.28;;;2.20;;
75400;SDS011;63974;47.538;18.972;2024-01-27T16:28:21;12.13;;;5.32;;
75400;SDS011;63974;47.538;18.972;2024-01-27T16:31:26;14.40;;;5.37;;
75400;SDS011;63974;47.538;18.972;2024-01-27T16:34:29;14.40;;;4.87;;
75400;SDS011;63974;47.538;18.972;2024-01-27T16:37:32;6.25;;;2.90;;
75400;SDS011;63974;47.538;18.972;2024-01-27T16:40:35;6.78;;;2.95;;
75400;SDS011;63974;47.538;18.972;2024-01-27T16:43:38;6.68;;;2.90;;
75400;SDS011;63974;47.538;18.972;2024-01-27T16:46:40;8.43;;;3.30;;
75400;SDS011;63974;47.538;18.972;2024-01-27T16:49:44;6.83;;;2.40;;
75400;SDS011;63974;47.538;18.972;2024-01-27T16:52:47;4.93;;;1.90;;
75400;SDS011;63974;47.538;18.972;2024-01-27T16:55:50;8.65;;;2.05;;
75400;SDS011;63974;47.538;18.972;2024-01-27T16:58:52;4.93;;;1.77;;
75400;SDS011;63974;47.538;18.972;2024-01-27T17:01:55;4.87;;;1.40;;
75400;SDS011;63974;47.538;18.972;2024-01-27T17:04:58;7.07;;;2.17;;
75400;SDS011;63974;47.538;18.972;2024-01-27T17:08:06;5.07;;;1.77;;
75400;SDS011;63974;47.538;18.972;2024-01-27T17:11:09;4.57;;;2.35;;
75400;SDS011;63974;47.538;18.972;2024-01-27T17:14:12;2.08;;;1.20;;
75400;SDS011;63974;47.538;18.972;2024-01-27T17:17:15;2.10;;;0.80;;
75400;SDS011;63974;47.538;18.972;2024-01-27T17:20:18;4.53;;;1.30;;
75400;SDS011;63974;47.538;18.972;2024-01-27T17:23:22;3.70;;;1.95;;
75400;SDS011;63974;47.538;18.972;2024-01-27T17:26:25;3.00;;;1.30;;
75400;SDS011;63974;47.538;18.972;2024-01-27T17:29:31;2.83;;;1.20;;
75400;SDS011;63974;47.538;18.972;2024-01-27T17:32:35;1.77;;;0.97;;
75400;SDS011;63974;47.538;18.972;2024-01-27T17:35:40;4.47;;;1.00;;
75400;SDS011;63974;47.538;18.972;2024-01-27T17:38:42;5.57;;;1.23;;
75400;SDS011;63974;47.538;18.972;2024-01-27T17:41:45;4.75;;;2.17;;
75400;SDS011;63974;47.538;18.972;2024-01-27T17:44:47;4.75;;;0.98;;
75400;SDS011;63974;47.538;18.972;2024-01-27T17:47:51;3.73;;;1.73;;
75400;SDS011;63974;47.538;18.972;2024-01-27T17:50:55;4.00;;;1.17;;
75400;SDS011;63974;47.538;18.972;2024-01-27T17:53:59;2.67;;;1.42;;
75400;SDS011;63974;47.538;18.972;2024-01-27T17:57:05;3.35;;;1.08;;
75400;SDS011;63974;47.538;18.972;2024-01-27T18:00:13;5.45;;;1.40;;
75400;SDS011;63974;47.538;18.972;2024-01-27T18:03:19;1.83;;;0.73;;
75400;SDS011;63974;47.538;18.972;2024-01-27T18:06:22;1.97;;;0.50;;
75400;SDS011;63974;47.538;18.972;2024-01-27T18:09:26;3.83;;;1.17;;